sensor_id;sensor_type;location;lat;lon;timestamp;P1;durP1;ratioP1;P2;durP2;ratioP2
21018;SDS011;10667;51.056;3.732;2023-01-08T00:01:43;9.38;;;4.30;;
21018;SDS011;10667;51.056;3.732;2023-01-08T00:04:09;8.75;;;4.13;;
21018;SDS011;10667;51.056;3.732;2023-01-08T00:06:34;9.77;;;4.40;;
21018;SDS011;10667;51.056;3.732;2023-01-08T00:09:00;9.40;;;3.35;;
21018;SDS011;10667;51.056;3.732;2023-01-08T00:11:27;8.07;;;3.38;;
21018;SDS011;10667;51.056;3.732;2023-01-08T00:13:53;8.38;;;3.80;;
21018;SDS011;10667;51.056;3.732;2023-01-08T00:16:18;8.30;;;3.78;;
21018;SDS011;10667;51.056;3.732;2023-01-08T00:18:45;9.00;;;3.83;;
21018;SDS011;10667;51.056;3.732;2023-01-08T00:21:11;9.93;;;4.30;;
21018;SDS011;10667;51.056;3.732;2023-01-08T00:23:37;6.43;;;3.65;;
21018;SDS011;10667;51.056;3.732;2023-01-08T00:26:05;8.85;;;3.47;;
21018;SDS011;10667;51.056;3.732;2023-01-08T00:28:32;7.72;;;3.47;;
21018;SDS011;10667;51.056;3.732;2023-01-08T00:30:58;9.20;;;3.92;;
21018;SDS011;10667;51.056;3.732;2023-01-08T00:33:25;7.97;;;3.75;;
21018;SDS011;10667;51.056;3.732;2023-01-08T00:35:51;7.95;;;3.40;;
21018;SDS011;10667;51.056;3.732;2023-01-08T00:38:16;6.82;;;3.42;;
21018;SDS011;10667;51.056;3.732;2023-01-08T00:40:42;6.38;;;3.10;;
21018;SDS011;10667;51.056;3.732;2023-01-08T00:43:08;5.38;;;2.75;;
21018;SDS011;10667;51.056;3.732;2023-01-08T00:45:34;7.07;;;2.90;;
21018;SDS011;10667;51.056;3.732;2023-01-08T00:48:00;5.43;;;2.70;;
21018;SDS011;10667;51.056;3.732;2023-01-08T00:50:25;5.80;;;2.60;;
21018;SDS011;10667;51.056;3.732;2023-01-08T00:52:52;9.13;;;2.45;;
21018;SDS011;10667;51.056;3.732;2023-01-08T00:55:17;3.85;;;2.30;;
21018;SDS011;10667;51.056;3.732;2023-01-08T00:57:43;4.88;;;2.50;;
21018;SDS011;10667;51.056;3.732;2023-01-08T01:00:10;5.78;;;2.35;;
21018;SDS011;10667;51.056;3.732;2023-01-08T01:02:38;6.97;;;2.47;;
21018;SDS011;10667;51.056;3.732;2023-01-08T01:05:05;5.97;;;2.58;;
21018;SDS011;10667;51.056;3.732;2023-01-08T01:07:33;8.20;;;2.58;;
21018;SDS011;10667;51.056;3.732;2023-01-08T01:09:59;6.80;;;2.15;;
21018;SDS011;10667;51.056;3.732;2023-01-08T01:12:24;6.25;;;2.25;;
21018;SDS011;10667;51.056;3.732;2023-01-08T01:14:50;8.38;;;2.22;;
21018;SDS011;10667;51.056;3.732;2023-01-08T01:17:16;9.98;;;2.88;;
21018;SDS011;10667;51.056;3.732;2023-01-08T01:19:42;8.15;;;2.17;;
21018;SDS011;10667;51.056;3.732;2023-01-08T01:22:08;5.07;;;2.00;;
21018;SDS011;10667;51.056;3.732;2023-01-08T01:24:33;6.82;;;2.20;;
21018;SDS011;10667;51.056;3.732;2023-01-08T01:26:59;5.50;;;1.95;;
21018;SDS011;10667;51.056;3.732;2023-01-08T01:29:25;8.63;;;2.50;;
21018;SDS011;10667;51.056;3.732;2023-01-08T01:31:51;8.23;;;2.20;;
21018;SDS011;10667;51.056;3.732;2023-01-08T01:34:16;8.95;;;2.35;;
21018;SDS011;10667;51.056;3.732;2023-01-08T01:36:42;6.57;;;2.05;;
21018;SDS011;10667;51.056;3.732;2023-01-08T01:39:08;5.15;;;1.83;;
21018;SDS011;10667;51.056;3.732;2023-01-08T01:41:38;4.68;;;2.28;;
21018;SDS011;10667;51.056;3.732;2023-01-08T01:45:10;6.10;;;1.98;;
21018;SDS011;10667;51.056;3.732;2023-01-08T01:47:15;4.38;;;2.13;;
21018;SDS011;10667;51.056;3.732;2023-01-08T01:52:53;5.68;;;2.05;;
21018;SDS011;10667;51.056;3.732;2023-01-08T01:55:19;4.15;;;1.80;;
21018;SDS011;10667;51.056;3.732;2023-01-08T01:57:48;6.75;;;2.10;;
21018;SDS011;10667;51.056;3.732;2023-01-08T02:00:17;9.73;;;2.50;;
21018;SDS011;10667;51.056;3.732;2023-01-08T02:02:43;6.20;;;2.35;;
21018;SDS011;10667;51.056;3.732;2023-01-08T02:05:09;5.00;;;2.08;;
21018;SDS011;10667;51.056;3.732;2023-01-08T02:07:38;3.03;;;1.73;;
21018;SDS011;10667;51.056;3.732;2023-01-08T02:10:22;7.93;;;2.33;;
21018;SDS011;10667;51.056;3.732;2023-01-08T02:13:13;5.20;;;2.03;;
21018;SDS011;10667;51.056;3.732;2023-01-08T02:21:09;4.03;;;1.90;;
21018;SDS011;10667;51.056;3.732;2023-01-08T02:26:44;8.77;;;2.83;;
21018;SDS011;10667;51.056;3.732;2023-01-08T02:29:16;5.68;;;2.50;;
21018;SDS011;10667;51.056;3.732;2023-01-08T02:31:46;10.38;;;2.25;;
21018;SDS011;10667;51.056;3.732;2023-01-08T02:34:12;6.13;;;2.33;;
21018;SDS011;10667;51.056;3.732;2023-01-08T02:50:57;9.07;;;2.30;;
21018;SDS011;10667;51.056;3.732;2023-01-08T02:53:32;5.57;;;2.38;;
21018;SDS011;10667;51.056;3.732;2023-01-08T02:56:02;9.70;;;2.75;;
21018;SDS011;10667;51.056;3.732;2023-01-08T02:58:32;13.13;;;3.20;;
21018;SDS011;10667;51.056;3.732;2023-01-08T03:01:01;8.38;;;2.55;;
21018;SDS011;10667;51.056;3.732;2023-01-08T03:03:28;9.90;;;2.67;;
21018;SDS011;10667;51.056;3.732;2023-01-08T03:06:02;8.57;;;2.58;;
21018;SDS011;10667;51.056;3.732;2023-01-08T03:08:30;6.55;;;2.58;;
21018;SDS011;10667;51.056;3.732;2023-01-08T03:11:02;9.23;;;3.03;;
21018;SDS011;10667;51.056;3.732;2023-01-08T03:13:39;6.38;;;2.50;;
21018;SDS011;10667;51.056;3.732;2023-01-08T03:16:22;11.73;;;3.00;;
21018;SDS011;10667;51.056;3.732;2023-01-08T03:18:58;8.25;;;2.63;;
21018;SDS011;10667;51.056;3.732;2023-01-08T03:21:46;10.93;;;3.33;;
21018;SDS011;10667;51.056;3.732;2023-01-08T03:24:14;8.40;;;3.28;;
21018;SDS011;10667;51.056;3.732;2023-01-08T03:26:44;8.63;;;2.58;;
21018;SDS011;10667;51.056;3.732;2023-01-08T03:29:13;12.00;;;3.40;;
21018;SDS011;10667;51.056;3.732;2023-01-08T03:31:41;7.18;;;2.80;;
21018;SDS011;10667;51.056;3.732;2023-01-08T03:34:10;7.43;;;2.75;;
21018;SDS011;10667;51.056;3.732;2023-01-08T03:36:38;8.05;;;2.67;;
21018;SDS011;10667;51.056;3.732;2023-01-08T03:39:18;6.80;;;2.67;;
21018;SDS011;10667;51.056;3.732;2023-01-08T03:41:49;6.22;;;2.25;;
21018;SDS011;10667;51.056;3.732;2023-01-08T03:44:19;6.45;;;2.60;;
21018;SDS011;10667;51.056;3.732;2023-01-08T03:46:46;8.25;;;2.00;;
21018;SDS011;10667;51.056;3.732;2023-01-08T03:49:16;13.70;;;2.50;;
21018;SDS011;10667;51.056;3.732;2023-01-08T03:51:44;6.82;;;2.15;;
21018;SDS011;10667;51.056;3.732;2023-01-08T03:54:18;8.52;;;2.15;;
21018;SDS011;10667;51.056;3.732;2023-01-08T03:56:47;9.13;;;2.92;;
21018;SDS011;10667;51.056;3.732;2023-01-08T03:59:13;8.30;;;2.35;;
21018;SDS011;10667;51.056;3.732;2023-01-08T04:01:40;13.55;;;2.17;;
21018;SDS011;10667;51.056;3.732;2023-01-08T04:04:06;8.75;;;2.45;;
21018;SDS011;10667;51.056;3.732;2023-01-08T04:06:32;7.78;;;1.90;;
21018;SDS011;10667;51.056;3.732;2023-01-08T04:08:58;6.03;;;1.98;;
21018;SDS011;10667;51.056;3.732;2023-01-08T04:11:24;8.63;;;2.20;;
21018;SDS011;10667;51.056;3.732;2023-01-08T04:13:49;8.93;;;1.95;;
21018;SDS011;10667;51.056;3.732;2023-01-08T04:16:15;8.23;;;2.20;;
21018;SDS011;10667;51.056;3.732;2023-01-08T04:18:41;10.15;;;2.33;;
21018;SDS011;10667;51.056;3.732;2023-01-08T04:21:07;14.80;;;4.05;;
21018;SDS011;10667;51.056;3.732;2023-01-08T04:23:32;11.65;;;2.05;;
21018;SDS011;10667;51.056;3.732;2023-01-08T04:25:58;13.45;;;2.35;;
21018;SDS011;10667;51.056;3.732;2023-01-08T04:28:24;7.22;;;2.00;;
21018;SDS011;10667;51.056;3.732;2023-01-08T04:30:50;7.25;;;1.98;;
21018;SDS011;10667;51.056;3.732;2023-01-08T04:33:15;9.52;;;2.05;;
21018;SDS011;10667;51.056;3.732;2023-01-08T04:35:41;7.05;;;2.20;;
21018;SDS011;10667;51.056;3.732;2023-01-08T04:38:07;6.88;;;1.70;;
21018;SDS011;10667;51.056;3.732;2023-01-08T04:40:32;9.40;;;2.42;;
21018;SDS011;10667;51.056;3.732;2023-01-08T04:42:58;9.30;;;2.70;;
21018;SDS011;10667;51.056;3.732;2023-01-08T04:45:24;11.10;;;2.30;;
21018;SDS011;10667;51.056;3.732;2023-01-08T04:47:56;7.72;;;2.13;;
21018;SDS011;10667;51.056;3.732;2023-01-08T04:50:22;6.53;;;2.13;;
21018;SDS011;10667;51.056;3.732;2023-01-08T04:52:48;9.25;;;2.50;;
21018;SDS011;10667;51.056;3.732;2023-01-08T04:55:14;12.43;;;2.55;;
21018;SDS011;10667;51.056;3.732;2023-01-08T04:57:40;10.30;;;2.72;;
21018;SDS011;10667;51.056;3.732;2023-01-08T05:00:06;12.23;;;1.95;;
21018;SDS011;10667;51.056;3.732;2023-01-08T05:02:33;13.98;;;2.53;;
21018;SDS011;10667;51.056;3.732;2023-01-08T05:04:59;11.65;;;2.28;;
21018;SDS011;10667;51.056;3.732;2023-01-08T05:07:24;7.90;;;2.40;;
21018;SDS011;10667;51.056;3.732;2023-01-08T05:09:50;8.88;;;2.13;;
21018;SDS011;10667;51.056;3.732;2023-01-08T05:12:16;13.95;;;2.90;;
21018;SDS011;10667;51.056;3.732;2023-01-08T05:14:42;7.15;;;2.72;;
21018;SDS011;10667;51.056;3.732;2023-01-08T05:17:08;11.80;;;2.40;;
21018;SDS011;10667;51.056;3.732;2023-01-08T05:19:34;10.48;;;2.55;;
21018;SDS011;10667;51.056;3.732;2023-01-08T05:21:59;10.80;;;2.53;;
21018;SDS011;10667;51.056;3.732;2023-01-08T05:24:25;11.38;;;2.50;;
21018;SDS011;10667;51.056;3.732;2023-01-08T05:26:51;17.85;;;2.78;;
21018;SDS011;10667;51.056;3.732;2023-01-08T05:29:16;13.43;;;3.15;;
21018;SDS011;10667;51.056;3.732;2023-01-08T05:31:42;14.90;;;3.00;;
21018;SDS011;10667;51.056;3.732;2023-01-08T05:34:09;16.00;;;3.25;;
21018;SDS011;10667;51.056;3.732;2023-01-08T05:36:34;12.45;;;3.38;;
21018;SDS011;10667;51.056;3.732;2023-01-08T05:39:00;13.55;;;3.08;;
21018;SDS011;10667;51.056;3.732;2023-01-08T05:41:26;10.75;;;3.05;;
21018;SDS011;10667;51.056;3.732;2023-01-08T05:43:51;14.40;;;2.65;;
21018;SDS011;10667;51.056;3.732;2023-01-08T05:46:17;10.48;;;2.42;;
21018;SDS011;10667;51.056;3.732;2023-01-08T05:48:43;11.50;;;2.70;;
21018;SDS011;10667;51.056;3.732;2023-01-08T05:51:09;8.57;;;2.60;;
21018;SDS011;10667;51.056;3.732;2023-01-08T05:53:34;13.95;;;3.67;;
21018;SDS011;10667;51.056;3.732;2023-01-08T05:56:07;5.03;;;2.65;;
21018;SDS011;10667;51.056;3.732;2023-01-08T05:58:34;12.07;;;2.78;;
21018;SDS011;10667;51.056;3.732;2023-01-08T06:01:01;21.05;;;3.05;;
21018;SDS011;10667;51.056;3.732;2023-01-08T06:03:29;12.85;;;2.90;;
21018;SDS011;10667;51.056;3.732;2023-01-08T06:05:58;11.90;;;2.97;;
21018;SDS011;10667;51.056;3.732;2023-01-08T06:08:25;17.73;;;4.88;;
21018;SDS011;10667;51.056;3.732;2023-01-08T06:10:52;18.25;;;2.83;;
21018;SDS011;10667;51.056;3.732;2023-01-08T06:13:17;13.98;;;2.90;;
21018;SDS011;10667;51.056;3.732;2023-01-08T06:15:43;11.15;;;3.08;;
21018;SDS011;10667;51.056;3.732;2023-01-08T06:18:09;13.13;;;3.60;;
21018;SDS011;10667;51.056;3.732;2023-01-08T06:20:34;11.23;;;2.65;;
21018;SDS011;10667;51.056;3.732;2023-01-08T06:23:00;13.50;;;3.03;;
21018;SDS011;10667;51.056;3.732;2023-01-08T06:25:26;9.27;;;2.72;;
21018;SDS011;10667;51.056;3.732;2023-01-08T06:27:52;10.13;;;2.72;;
21018;SDS011;10667;51.056;3.732;2023-01-08T06:30:18;14.02;;;2.75;;
21018;SDS011;10667;51.056;3.732;2023-01-08T06:32:43;12.07;;;2.50;;
21018;SDS011;10667;51.056;3.732;2023-01-08T06:35:09;15.10;;;3.10;;
21018;SDS011;10667;51.056;3.732;2023-01-08T06:37:35;11.98;;;2.95;;
21018;SDS011;10667;51.056;3.732;2023-01-08T06:40:01;17.60;;;2.95;;
21018;SDS011;10667;51.056;3.732;2023-01-08T06:42:27;9.80;;;2.45;;
21018;SDS011;10667;51.056;3.732;2023-01-08T06:44:52;12.60;;;2.83;;
21018;SDS011;10667;51.056;3.732;2023-01-08T06:47:18;10.75;;;2.97;;
21018;SDS011;10667;51.056;3.732;2023-01-08T06:49:44;16.65;;;3.67;;
21018;SDS011;10667;51.056;3.732;2023-01-08T06:52:10;10.43;;;2.42;;
21018;SDS011;10667;51.056;3.732;2023-01-08T06:54:36;14.48;;;3.45;;
21018;SDS011;10667;51.056;3.732;2023-01-08T06:57:02;11.73;;;2.50;;
21018;SDS011;10667;51.056;3.732;2023-01-08T06:59:27;15.32;;;3.20;;
21018;SDS011;10667;51.056;3.732;2023-01-08T07:01:53;13.75;;;2.95;;
21018;SDS011;10667;51.056;3.732;2023-01-08T07:04:19;12.82;;;3.47;;
21018;SDS011;10667;51.056;3.732;2023-01-08T07:06:45;13.90;;;3.05;;
21018;SDS011;10667;51.056;3.732;2023-01-08T07:09:11;10.98;;;3.28;;
21018;SDS011;10667;51.056;3.732;2023-01-08T07:11:38;10.18;;;2.85;;
21018;SDS011;10667;51.056;3.732;2023-01-08T07:14:05;17.88;;;4.03;;
21018;SDS011;10667;51.056;3.732;2023-01-08T07:16:32;9.43;;;2.92;;
21018;SDS011;10667;51.056;3.732;2023-01-08T07:18:58;10.60;;;3.13;;
21018;SDS011;10667;51.056;3.732;2023-01-08T07:21:24;13.30;;;3.65;;
21018;SDS011;10667;51.056;3.732;2023-01-08T07:23:50;16.92;;;3.10;;
21018;SDS011;10667;51.056;3.732;2023-01-08T07:26:16;12.00;;;2.72;;
21018;SDS011;10667;51.056;3.732;2023-01-08T07:28:42;11.20;;;2.88;;
21018;SDS011;10667;51.056;3.732;2023-01-08T07:31:08;13.52;;;3.13;;
21018;SDS011;10667;51.056;3.732;2023-01-08T07:33:34;11.27;;;3.70;;
21018;SDS011;10667;51.056;3.732;2023-01-08T07:36:00;13.38;;;4.20;;
21018;SDS011;10667;51.056;3.732;2023-01-08T07:38:26;14.23;;;3.33;;
21018;SDS011;10667;51.056;3.732;2023-01-08T07:40:52;15.30;;;3.38;;
21018;SDS011;10667;51.056;3.732;2023-01-08T07:43:18;18.70;;;3.65;;
21018;SDS011;10667;51.056;3.732;2023-01-08T07:45:44;11.85;;;3.30;;
21018;SDS011;10667;51.056;3.732;2023-01-08T07:48:10;22.38;;;3.50;;
21018;SDS011;10667;51.056;3.732;2023-01-08T07:50:40;13.77;;;3.42;;
21018;SDS011;10667;51.056;3.732;2023-01-08T07:53:07;12.73;;;3.50;;
21018;SDS011;10667;51.056;3.732;2023-01-08T07:55:33;6.38;;;2.80;;
21018;SDS011;10667;51.056;3.732;2023-01-08T07:57:59;12.43;;;3.25;;
21018;SDS011;10667;51.056;3.732;2023-01-08T08:00:24;19.25;;;4.30;;
21018;SDS011;10667;51.056;3.732;2023-01-08T08:02:50;11.50;;;3.60;;
21018;SDS011;10667;51.056;3.732;2023-01-08T08:05:16;10.98;;;4.28;;
21018;SDS011;10667;51.056;3.732;2023-01-08T08:07:42;9.43;;;3.10;;
21018;SDS011;10667;51.056;3.732;2023-01-08T08:10:08;9.65;;;3.65;;
21018;SDS011;10667;51.056;3.732;2023-01-08T08:12:36;11.95;;;2.88;;
21018;SDS011;10667;51.056;3.732;2023-01-08T08:15:01;9.98;;;3.70;;
21018;SDS011;10667;51.056;3.732;2023-01-08T08:17:27;10.73;;;2.92;;
21018;SDS011;10667;51.056;3.732;2023-01-08T08:19:53;9.95;;;2.70;;
21018;SDS011;10667;51.056;3.732;2023-01-08T08:22:19;12.63;;;3.55;;
21018;SDS011;10667;51.056;3.732;2023-01-08T08:24:44;8.63;;;3.33;;
21018;SDS011;10667;51.056;3.732;2023-01-08T08:27:10;9.45;;;3.00;;
21018;SDS011;10667;51.056;3.732;2023-01-08T08:29:36;19.23;;;3.60;;
21018;SDS011;10667;51.056;3.732;2023-01-08T08:32:01;12.82;;;3.13;;
21018;SDS011;10667;51.056;3.732;2023-01-08T08:34:27;9.93;;;2.95;;
21018;SDS011;10667;51.056;3.732;2023-01-08T08:36:53;15.07;;;3.05;;
21018;SDS011;10667;51.056;3.732;2023-01-08T08:39:19;12.95;;;3.60;;
21018;SDS011;10667;51.056;3.732;2023-01-08T08:41:44;12.23;;;3.15;;
21018;SDS011;10667;51.056;3.732;2023-01-08T08:44:10;14.05;;;2.90;;
21018;SDS011;10667;51.056;3.732;2023-01-08T08:46:36;12.10;;;3.03;;
21018;SDS011;10667;51.056;3.732;2023-01-08T08:49:01;10.27;;;3.33;;
21018;SDS011;10667;51.056;3.732;2023-01-08T08:51:27;10.10;;;2.95;;
21018;SDS011;10667;51.056;3.732;2023-01-08T08:53:53;11.20;;;2.88;;
21018;SDS011;10667;51.056;3.732;2023-01-08T08:56:18;13.95;;;3.80;;
21018;SDS011;10667;51.056;3.732;2023-01-08T08:58:44;7.93;;;2.72;;
21018;SDS011;10667;51.056;3.732;2023-01-08T09:01:10;8.75;;;2.70;;
21018;SDS011;10667;51.056;3.732;2023-01-08T09:03:36;11.38;;;3.28;;
21018;SDS011;10667;51.056;3.732;2023-01-08T09:06:03;10.65;;;3.35;;
21018;SDS011;10667;51.056;3.732;2023-01-08T09:08:29;11.70;;;2.50;;
21018;SDS011;10667;51.056;3.732;2023-01-08T09:10:54;6.05;;;2.97;;
21018;SDS011;10667;51.056;3.732;2023-01-08T09:13:20;5.38;;;2.42;;
21018;SDS011;10667;51.056;3.732;2023-01-08T09:15:46;4.53;;;2.22;;
21018;SDS011;10667;51.056;3.732;2023-01-08T09:18:11;7.57;;;2.63;;
21018;SDS011;10667;51.056;3.732;2023-01-08T09:20:37;8.32;;;3.40;;
21018;SDS011;10667;51.056;3.732;2023-01-08T09:23:03;4.18;;;2.20;;
21018;SDS011;10667;51.056;3.732;2023-01-08T09:25:29;7.95;;;3.08;;
21018;SDS011;10667;51.056;3.732;2023-01-08T09:27:59;4.60;;;2.15;;
21018;SDS011;10667;51.056;3.732;2023-01-08T09:30:26;7.07;;;2.33;;
21018;SDS011;10667;51.056;3.732;2023-01-08T09:32:58;5.22;;;1.95;;
21018;SDS011;10667;51.056;3.732;2023-01-08T09:35:25;5.05;;;2.75;;
21018;SDS011;10667;51.056;3.732;2023-01-08T09:37:52;8.90;;;2.10;;
21018;SDS011;10667;51.056;3.732;2023-01-08T09:40:18;4.45;;;1.70;;
21018;SDS011;10667;51.056;3.732;2023-01-08T09:42:48;3.92;;;1.90;;
21018;SDS011;10667;51.056;3.732;2023-01-08T09:45:26;4.90;;;1.73;;
21018;SDS011;10667;51.056;3.732;2023-01-08T09:48:00;2.88;;;1.60;;
21018;SDS011;10667;51.056;3.732;2023-01-08T09:50:30;7.00;;;2.22;;
21018;SDS011;10667;51.056;3.732;2023-01-08T09:52:57;4.78;;;2.25;;
21018;SDS011;10667;51.056;3.732;2023-01-08T09:55:24;6.35;;;1.90;;
21018;SDS011;10667;51.056;3.732;2023-01-08T09:57:53;7.05;;;1.95;;
21018;SDS011;10667;51.056;3.732;2023-01-08T10:00:24;5.78;;;2.10;;
21018;SDS011;10667;51.056;3.732;2023-01-08T10:02:53;2.78;;;1.40;;
21018;SDS011;10667;51.056;3.732;2023-01-08T10:05:19;6.05;;;2.08;;
21018;SDS011;10667;51.056;3.732;2023-01-08T10:07:46;2.88;;;1.45;;
21018;SDS011;10667;51.056;3.732;2023-01-08T10:10:22;5.03;;;1.90;;
21018;SDS011;10667;51.056;3.732;2023-01-08T10:12:50;6.38;;;1.88;;
21018;SDS011;10667;51.056;3.732;2023-01-08T10:15:18;3.95;;;1.50;;
21018;SDS011;10667;51.056;3.732;2023-01-08T10:17:54;6.53;;;2.17;;
21018;SDS011;10667;51.056;3.732;2023-01-08T10:20:26;5.05;;;1.70;;
21018;SDS011;10667;51.056;3.732;2023-01-08T10:22:53;9.88;;;2.30;;
21018;SDS011;10667;51.056;3.732;2023-01-08T10:25:24;10.18;;;2.25;;
21018;SDS011;10667;51.056;3.732;2023-01-08T10:30:36;5.35;;;2.05;;
21018;SDS011;10667;51.056;3.732;2023-01-08T10:33:25;3.38;;;1.50;;
21018;SDS011;10667;51.056;3.732;2023-01-08T10:36:02;6.03;;;2.00;;
21018;SDS011;10667;51.056;3.732;2023-01-08T10:38:35;3.78;;;1.90;;
21018;SDS011;10667;51.056;3.732;2023-01-08T10:41:10;4.18;;;1.92;;
21018;SDS011;10667;51.056;3.732;2023-01-08T10:46:34;5.35;;;1.80;;
21018;SDS011;10667;51.056;3.732;2023-01-08T10:49:06;7.22;;;1.75;;
21018;SDS011;10667;51.056;3.732;2023-01-08T10:51:58;10.43;;;2.42;;
21018;SDS011;10667;51.056;3.732;2023-01-08T10:54:35;5.72;;;2.10;;
21018;SDS011;10667;51.056;3.732;2023-01-08T10:57:02;9.05;;;2.40;;
21018;SDS011;10667;51.056;3.732;2023-01-08T10:59:44;5.45;;;1.75;;
21018;SDS011;10667;51.056;3.732;2023-01-08T11:02:14;6.22;;;2.00;;
21018;SDS011;10667;51.056;3.732;2023-01-08T11:04:51;8.13;;;1.90;;
21018;SDS011;10667;51.056;3.732;2023-01-08T11:07:18;8.20;;;1.77;;
21018;SDS011;10667;51.056;3.732;2023-01-08T11:09:46;7.65;;;2.13;;
21018;SDS011;10667;51.056;3.732;2023-01-08T11:12:47;10.00;;;2.13;;
21018;SDS011;10667;51.056;3.732;2023-01-08T11:17:43;4.07;;;1.70;;
21018;SDS011;10667;51.056;3.732;2023-01-08T11:22:44;7.88;;;1.80;;
21018;SDS011;10667;51.056;3.732;2023-01-08T11:25:11;8.88;;;2.55;;
21018;SDS011;10667;51.056;3.732;2023-01-08T11:27:43;8.93;;;2.28;;
21018;SDS011;10667;51.056;3.732;2023-01-08T11:30:13;11.77;;;1.98;;
21018;SDS011;10667;51.056;3.732;2023-01-08T11:35:45;5.10;;;2.20;;
21018;SDS011;10667;51.056;3.732;2023-01-08T11:38:24;9.90;;;2.00;;
21018;SDS011;10667;51.056;3.732;2023-01-08T11:55:01;6.95;;;2.15;;
21018;SDS011;10667;51.056;3.732;2023-01-08T12:03:02;8.27;;;2.47;;
21018;SDS011;10667;51.056;3.732;2023-01-08T12:11:31;9.73;;;2.45;;
21018;SDS011;10667;51.056;3.732;2023-01-08T12:16:40;7.47;;;2.28;;
21018;SDS011;10667;51.056;3.732;2023-01-08T12:19:37;7.80;;;1.90;;
21018;SDS011;10667;51.056;3.732;2023-01-08T12:36:14;11.90;;;2.53;;
21018;SDS011;10667;51.056;3.732;2023-01-08T12:38:48;8.32;;;2.05;;
21018;SDS011;10667;51.056;3.732;2023-01-08T12:41:22;8.18;;;2.20;;
21018;SDS011;10667;51.056;3.732;2023-01-08T12:43:56;12.60;;;2.67;;
21018;SDS011;10667;51.056;3.732;2023-01-08T12:46:27;9.00;;;2.25;;
21018;SDS011;10667;51.056;3.732;2023-01-08T12:48:59;8.90;;;2.17;;
21018;SDS011;10667;51.056;3.732;2023-01-08T12:54:32;9.20;;;2.72;;
21018;SDS011;10667;51.056;3.732;2023-01-08T12:57:13;6.07;;;2.53;;
21018;SDS011;10667;51.056;3.732;2023-01-08T13:07:58;5.03;;;2.00;;
21018;SDS011;10667;51.056;3.732;2023-01-08T13:10:33;4.05;;;2.15;;
21018;SDS011;10667;51.056;3.732;2023-01-08T13:13:04;5.63;;;2.15;;
21018;SDS011;10667;51.056;3.732;2023-01-08T13:15:32;7.13;;;2.00;;
21018;SDS011;10667;51.056;3.732;2023-01-08T13:20:41;8.07;;;2.25;;
21018;SDS011;10667;51.056;3.732;2023-01-08T13:23:17;9.70;;;2.40;;
21018;SDS011;10667;51.056;3.732;2023-01-08T13:25:52;5.28;;;2.00;;
21018;SDS011;10667;51.056;3.732;2023-01-08T13:28:41;9.90;;;2.60;;
21018;SDS011;10667;51.056;3.732;2023-01-08T13:33:48;9.55;;;2.20;;
21018;SDS011;10667;51.056;3.732;2023-01-08T13:38:45;8.88;;;2.53;;
21018;SDS011;10667;51.056;3.732;2023-01-08T13:43:55;9.82;;;2.03;;
21018;SDS011;10667;51.056;3.732;2023-01-08T13:46:41;9.45;;;2.35;;
21018;SDS011;10667;51.056;3.732;2023-01-08T13:49:08;8.95;;;2.30;;
21018;SDS011;10667;51.056;3.732;2023-01-08T13:51:47;6.13;;;2.20;;
21018;SDS011;10667;51.056;3.732;2023-01-08T13:54:21;9.18;;;2.17;;
21018;SDS011;10667;51.056;3.732;2023-01-08T13:56:53;8.15;;;2.60;;
21018;SDS011;10667;51.056;3.732;2023-01-08T14:02:03;8.60;;;2.55;;
21018;SDS011;10667;51.056;3.732;2023-01-08T14:04:47;6.75;;;2.22;;
21018;SDS011;10667;51.056;3.732;2023-01-08T14:07:14;8.18;;;1.83;;
21018;SDS011;10667;51.056;3.732;2023-01-08T14:09:43;7.72;;;2.30;;
21018;SDS011;10667;51.056;3.732;2023-01-08T14:12:22;13.20;;;3.15;;
21018;SDS011;10667;51.056;3.732;2023-01-08T14:14:52;9.35;;;2.25;;
21018;SDS011;10667;51.056;3.732;2023-01-08T14:17:21;8.80;;;2.58;;
21018;SDS011;10667;51.056;3.732;2023-01-08T14:19:53;7.20;;;2.13;;
21018;SDS011;10667;51.056;3.732;2023-01-08T14:22:20;7.75;;;2.58;;
21018;SDS011;10667;51.056;3.732;2023-01-08T14:24:55;6.72;;;2.40;;
21018;SDS011;10667;51.056;3.732;2023-01-08T14:27:25;10.75;;;2.20;;
21018;SDS011;10667;51.056;3.732;2023-01-08T14:29:52;7.95;;;2.53;;
21018;SDS011;10667;51.056;3.732;2023-01-08T14:32:20;9.75;;;2.17;;
21018;SDS011;10667;51.056;3.732;2023-01-08T14:34:48;10.20;;;2.80;;
21018;SDS011;10667;51.056;3.732;2023-01-08T14:37:16;11.48;;;2.35;;
21018;SDS011;10667;51.056;3.732;2023-01-08T14:39:42;10.73;;;3.20;;
21018;SDS011;10667;51.056;3.732;2023-01-08T14:42:12;11.45;;;2.42;;
21018;SDS011;10667;51.056;3.732;2023-01-08T14:47:44;6.32;;;2.60;;
21018;SDS011;10667;51.056;3.732;2023-01-08T14:50:22;13.57;;;3.13;;
21018;SDS011;10667;51.056;3.732;2023-01-08T14:52:58;12.20;;;2.55;;
21018;SDS011;10667;51.056;3.732;2023-01-08T14:55:29;13.10;;;3.92;;
21018;SDS011;10667;51.056;3.732;2023-01-08T14:57:56;12.63;;;2.30;;
21018;SDS011;10667;51.056;3.732;2023-01-08T15:00:27;11.63;;;2.70;;
21018;SDS011;10667;51.056;3.732;2023-01-08T15:02:54;6.45;;;2.03;;
21018;SDS011;10667;51.056;3.732;2023-01-08T15:07:55;6.22;;;2.40;;
21018;SDS011;10667;51.056;3.732;2023-01-08T15:10:39;10.38;;;2.92;;
21018;SDS011;10667;51.056;3.732;2023-01-08T15:13:06;6.88;;;2.63;;
21018;SDS011;10667;51.056;3.732;2023-01-08T15:16:25;6.75;;;2.45;;
21018;SDS011;10667;51.056;3.732;2023-01-08T15:18:59;8.13;;;2.60;;
21018;SDS011;10667;51.056;3.732;2023-01-08T15:21:35;10.15;;;2.45;;
21018;SDS011;10667;51.056;3.732;2023-01-08T15:24:02;8.45;;;2.45;;
21018;SDS011;10667;51.056;3.732;2023-01-08T15:26:30;11.80;;;2.60;;
21018;SDS011;10667;51.056;3.732;2023-01-08T15:28:57;8.18;;;2.50;;
21018;SDS011;10667;51.056;3.732;2023-01-08T15:34:10;10.35;;;2.95;;
21018;SDS011;10667;51.056;3.732;2023-01-08T15:36:36;11.82;;;2.50;;
21018;SDS011;10667;51.056;3.732;2023-01-08T15:39:03;8.27;;;2.28;;
21018;SDS011;10667;51.056;3.732;2023-01-08T15:41:34;12.18;;;2.88;;
21018;SDS011;10667;51.056;3.732;2023-01-08T15:44:19;9.77;;;2.33;;
21018;SDS011;10667;51.056;3.732;2023-01-08T15:46:45;15.02;;;3.65;;
21018;SDS011;10667;51.056;3.732;2023-01-08T15:49:10;6.72;;;2.33;;
21018;SDS011;10667;51.056;3.732;2023-01-08T15:51:38;11.70;;;4.75;;
21018;SDS011;10667;51.056;3.732;2023-01-08T15:54:08;13.57;;;2.83;;
21018;SDS011;10667;51.056;3.732;2023-01-08T15:56:36;8.43;;;2.90;;
21018;SDS011;10667;51.056;3.732;2023-01-08T15:59:02;5.97;;;2.33;;
21018;SDS011;10667;51.056;3.732;2023-01-08T16:01:28;8.93;;;2.83;;
21018;SDS011;10667;51.056;3.732;2023-01-08T16:03:56;7.70;;;2.70;;
21018;SDS011;10667;51.056;3.732;2023-01-08T16:06:21;15.02;;;4.25;;
21018;SDS011;10667;51.056;3.732;2023-01-08T16:08:47;13.75;;;3.10;;
21018;SDS011;10667;51.056;3.732;2023-01-08T16:11:13;11.63;;;3.08;;
21018;SDS011;10667;51.056;3.732;2023-01-08T16:13:41;18.08;;;2.90;;
21018;SDS011;10667;51.056;3.732;2023-01-08T16:16:11;13.63;;;2.83;;
21018;SDS011;10667;51.056;3.732;2023-01-08T16:18:38;8.57;;;2.40;;
21018;SDS011;10667;51.056;3.732;2023-01-08T16:21:05;10.05;;;2.88;;
21018;SDS011;10667;51.056;3.732;2023-01-08T16:23:32;10.00;;;3.17;;
21018;SDS011;10667;51.056;3.732;2023-01-08T16:26:03;10.30;;;2.80;;
21018;SDS011;10667;51.056;3.732;2023-01-08T16:28:39;7.57;;;2.70;;
21018;SDS011;10667;51.056;3.732;2023-01-08T16:31:05;14.75;;;3.30;;
21018;SDS011;10667;51.056;3.732;2023-01-08T16:33:32;8.80;;;3.70;;
21018;SDS011;10667;51.056;3.732;2023-01-08T16:35:59;14.18;;;3.33;;
21018;SDS011;10667;51.056;3.732;2023-01-08T16:38:26;9.75;;;2.60;;
21018;SDS011;10667;51.056;3.732;2023-01-08T16:40:53;12.98;;;3.33;;
21018;SDS011;10667;51.056;3.732;2023-01-08T16:43:23;11.27;;;4.20;;
21018;SDS011;10667;51.056;3.732;2023-01-08T16:45:50;11.90;;;3.10;;
21018;SDS011;10667;51.056;3.732;2023-01-08T16:48:16;14.63;;;3.58;;